sensor_id;sensor_type;location;lat;lon;timestamp;P1;durP1;ratioP1;P2;durP2;ratioP2
74495;SDS011;62979;55.720;37.606;2022-09-12T00:01:54;6.88;;;4.72;;
74495;SDS011;62979;55.720;37.606;2022-09-12T00:04:22;9.20;;;5.47;;
74495;SDS011;62979;55.720;37.606;2022-09-12T00:06:51;8.80;;;5.00;;
74495;SDS011;62979;55.720;37.606;2022-09-12T00:09:19;9.20;;;5.07;;
74495;SDS011;62979;55.720;37.606;2022-09-12T00:11:46;7.30;;;5.60;;
74495;SDS011;62979;55.720;37.606;2022-09-12T00:14:14;8.63;;;5.53;;
74495;SDS011;62979;55.720;37.606;2022-09-12T00:16:43;9.88;;;5.28;;
74495;SDS011;62979;55.720;37.606;2022-09-12T00:19:11;7.97;;;5.90;;
74495;SDS011;62979;55.720;37.606;2022-09-12T00:21:40;8.82;;;5.75;;
74495;SDS011;62979;55.720;37.606;2022-09-12T00:24:07;9.25;;;5.40;;
74495;SDS011;62979;55.720;37.606;2022-09-12T00:26:36;7.93;;;5.35;;
74495;SDS011;62979;55.720;37.606;2022-09-12T00:29:03;11.30;;;5.35;;
74495;SDS011;62979;55.720;37.606;2022-09-12T00:31:30;9.63;;;6.00;;
74495;SDS011;62979;55.720;37.606;2022-09-12T00:33:58;10.75;;;5.63;;
74495;SDS011;62979;55.720;37.606;2022-09-12T00:36:26;8.85;;;6.32;;
74495;SDS011;62979;55.720;37.606;2022-09-12T00:38:55;8.63;;;5.88;;
74495;SDS011;62979;55.720;37.606;2022-09-12T00:41:24;9.02;;;5.40;;
74495;SDS011;62979;55.720;37.606;2022-09-12T00:43:54;9.55;;;6.53;;
74495;SDS011;62979;55.720;37.606;2022-09-12T00:46:31;9.82;;;6.25;;
74495;SDS011;62979;55.720;37.606;2022-09-12T00:49:10;9.55;;;6.30;;
74495;SDS011;62979;55.720;37.606;2022-09-12T00:51:41;9.38;;;6.28;;
74495;SDS011;62979;55.720;37.606;2022-09-12T00:56:49;8.00;;;5.60;;
74495;SDS011;62979;55.720;37.606;2022-09-12T00:59:21;9.95;;;6.03;;
74495;SDS011;62979;55.720;37.606;2022-09-12T01:01:54;12.10;;;5.55;;
74495;SDS011;62979;55.720;37.606;2022-09-12T01:04:22;6.80;;;5.35;;
74495;SDS011;62979;55.720;37.606;2022-09-12T01:06:53;8.02;;;5.57;;
74495;SDS011;62979;55.720;37.606;2022-09-12T01:09:25;9.20;;;5.65;;
74495;SDS011;62979;55.720;37.606;2022-09-12T01:11:52;10.75;;;5.65;;
74495;SDS011;62979;55.720;37.606;2022-09-12T01:14:20;7.30;;;5.05;;
74495;SDS011;62979;55.720;37.606;2022-09-12T01:16:47;8.48;;;5.00;;
74495;SDS011;62979;55.720;37.606;2022-09-12T01:22:34;10.75;;;5.38;;
74495;SDS011;62979;55.720;37.606;2022-09-12T01:25:35;10.63;;;4.93;;
74495;SDS011;62979;55.720;37.606;2022-09-12T01:28:28;13.25;;;4.78;;
74495;SDS011;62979;55.720;37.606;2022-09-12T01:31:26;7.03;;;5.05;;
74495;SDS011;62979;55.720;37.606;2022-09-12T01:34:06;8.05;;;4.72;;
74495;SDS011;62979;55.720;37.606;2022-09-12T01:36:52;12.55;;;4.82;;
74495;SDS011;62979;55.720;37.606;2022-09-12T01:39:29;9.20;;;4.70;;
74495;SDS011;62979;55.720;37.606;2022-09-12T01:42:09;7.60;;;4.82;;
74495;SDS011;62979;55.720;37.606;2022-09-12T01:44:52;7.78;;;4.40;;
74495;SDS011;62979;55.720;37.606;2022-09-12T01:47:30;10.10;;;5.40;;
74495;SDS011;62979;55.720;37.606;2022-09-12T01:50:06;7.82;;;5.03;;
74495;SDS011;62979;55.720;37.606;2022-09-12T01:52:41;4.57;;;3.83;;
74495;SDS011;62979;55.720;37.606;2022-09-12T01:55:16;6.82;;;3.63;;
74495;SDS011;62979;55.720;37.606;2022-09-12T01:57:50;5.20;;;3.25;;
74495;SDS011;62979;55.720;37.606;2022-09-12T02:00:24;6.32;;;4.05;;
74495;SDS011;62979;55.720;37.606;2022-09-12T02:02:54;5.63;;;3.65;;
74495;SDS011;62979;55.720;37.606;2022-09-12T02:05:28;6.18;;;4.05;;
74495;SDS011;62979;55.720;37.606;2022-09-12T02:08:00;5.70;;;4.55;;
74495;SDS011;62979;55.720;37.606;2022-09-12T02:10:35;5.35;;;4.40;;
74495;SDS011;62979;55.720;37.606;2022-09-12T02:13:10;9.90;;;4.07;;
74495;SDS011;62979;55.720;37.606;2022-09-12T02:15:45;8.10;;;4.05;;
74495;SDS011;62979;55.720;37.606;2022-09-12T02:18:20;7.10;;;4.15;;
74495;SDS011;62979;55.720;37.606;2022-09-12T02:20:51;6.20;;;3.97;;
74495;SDS011;62979;55.720;37.606;2022-09-12T02:23:22;7.65;;;4.75;;
74495;SDS011;62979;55.720;37.606;2022-09-12T02:25:55;6.63;;;4.35;;
74495;SDS011;62979;55.720;37.606;2022-09-12T02:28:28;7.13;;;5.15;;
74495;SDS011;62979;55.720;37.606;2022-09-12T02:31:04;8.88;;;5.10;;
74495;SDS011;62979;55.720;37.606;2022-09-12T02:33:45;11.75;;;5.60;;
74495;SDS011;62979;55.720;37.606;2022-09-12T02:36:24;9.77;;;5.40;;
74495;SDS011;62979;55.720;37.606;2022-09-12T02:39:04;9.13;;;5.72;;
74495;SDS011;62979;55.720;37.606;2022-09-12T02:41:31;10.35;;;5.68;;
74495;SDS011;62979;55.720;37.606;2022-09-12T02:43:58;9.13;;;5.82;;
74495;SDS011;62979;55.720;37.606;2022-09-12T02:46:28;7.53;;;5.68;;
74495;SDS011;62979;55.720;37.606;2022-09-12T02:49:05;9.20;;;5.45;;
74495;SDS011;62979;55.720;37.606;2022-09-12T02:51:33;10.02;;;5.25;;
74495;SDS011;62979;55.720;37.606;2022-09-12T02:54:00;10.68;;;6.72;;
74495;SDS011;62979;55.720;37.606;2022-09-12T02:56:30;7.30;;;5.90;;
74495;SDS011;62979;55.720;37.606;2022-09-12T02:58:59;12.10;;;6.93;;
74495;SDS011;62979;55.720;37.606;2022-09-12T03:01:46;11.50;;;6.97;;
74495;SDS011;62979;55.720;37.606;2022-09-12T03:07:59;8.27;;;6.35;;
74495;SDS011;62979;55.720;37.606;2022-09-12T03:10:48;8.18;;;6.85;;
74495;SDS011;62979;55.720;37.606;2022-09-12T03:13:38;10.75;;;6.35;;
74495;SDS011;62979;55.720;37.606;2022-09-12T03:16:20;11.40;;;6.78;;
74495;SDS011;62979;55.720;37.606;2022-09-12T03:19:00;9.90;;;7.00;;
74495;SDS011;62979;55.720;37.606;2022-09-12T03:21:48;14.82;;;7.05;;
74495;SDS011;62979;55.720;37.606;2022-09-12T03:24:29;12.13;;;6.75;;
74495;SDS011;62979;55.720;37.606;2022-09-12T03:27:04;10.07;;;7.40;;
74495;SDS011;62979;55.720;37.606;2022-09-12T03:29:39;11.85;;;7.00;;
74495;SDS011;62979;55.720;37.606;2022-09-12T03:32:10;12.13;;;6.13;;
74495;SDS011;62979;55.720;37.606;2022-09-12T03:34:37;10.23;;;6.47;;
74495;SDS011;62979;55.720;37.606;2022-09-12T03:37:05;10.75;;;6.63;;
74495;SDS011;62979;55.720;37.606;2022-09-12T03:39:32;9.88;;;6.15;;
74495;SDS011;62979;55.720;37.606;2022-09-12T03:41:59;12.23;;;6.93;;
74495;SDS011;62979;55.720;37.606;2022-09-12T03:44:26;11.27;;;7.53;;
74495;SDS011;62979;55.720;37.606;2022-09-12T03:46:54;13.43;;;7.28;;
74495;SDS011;62979;55.720;37.606;2022-09-12T03:49:21;11.23;;;7.20;;
74495;SDS011;62979;55.720;37.606;2022-09-12T03:51:47;12.60;;;7.20;;
74495;SDS011;62979;55.720;37.606;2022-09-12T03:54:16;11.75;;;6.60;;
74495;SDS011;62979;55.720;37.606;2022-09-12T03:56:43;11.52;;;6.90;;
74495;SDS011;62979;55.720;37.606;2022-09-12T03:59:10;14.57;;;7.70;;
74495;SDS011;62979;55.720;37.606;2022-09-12T04:01:37;9.07;;;6.68;;
74495;SDS011;62979;55.720;37.606;2022-09-12T04:04:05;12.40;;;7.15;;
74495;SDS011;62979;55.720;37.606;2022-09-12T04:09:00;11.27;;;6.53;;
74495;SDS011;62979;55.720;37.606;2022-09-12T04:11:28;12.20;;;6.88;;
74495;SDS011;62979;55.720;37.606;2022-09-12T04:13:56;9.98;;;6.80;;
74495;SDS011;62979;55.720;37.606;2022-09-12T04:16:23;12.23;;;7.63;;
74495;SDS011;62979;55.720;37.606;2022-09-12T04:18:50;10.68;;;6.18;;
74495;SDS011;62979;55.720;37.606;2022-09-12T04:21:17;9.82;;;6.35;;
74495;SDS011;62979;55.720;37.606;2022-09-12T04:23:46;10.05;;;7.10;;
74495;SDS011;62979;55.720;37.606;2022-09-12T04:26:14;12.13;;;6.85;;
74495;SDS011;62979;55.720;37.606;2022-09-12T04:28:44;10.05;;;7.10;;
74495;SDS011;62979;55.720;37.606;2022-09-12T04:31:13;10.25;;;6.97;;
74495;SDS011;62979;55.720;37.606;2022-09-12T04:33:45;10.70;;;5.95;;
74495;SDS011;62979;55.720;37.606;2022-09-12T04:36:13;11.90;;;6.75;;
74495;SDS011;62979;55.720;37.606;2022-09-12T04:38:42;9.90;;;6.75;;
74495;SDS011;62979;55.720;37.606;2022-09-12T04:41:12;13.27;;;5.72;;
74495;SDS011;62979;55.720;37.606;2022-09-12T04:43:42;10.02;;;6.57;;
74495;SDS011;62979;55.720;37.606;2022-09-12T04:46:12;10.57;;;7.50;;
74495;SDS011;62979;55.720;37.606;2022-09-12T04:48:43;8.63;;;6.15;;
74495;SDS011;62979;55.720;37.606;2022-09-12T04:51:12;8.77;;;6.70;;
74495;SDS011;62979;55.720;37.606;2022-09-12T04:53:41;11.80;;;6.90;;
74495;SDS011;62979;55.720;37.606;2022-09-12T04:56:12;12.48;;;6.20;;
74495;SDS011;62979;55.720;37.606;2022-09-12T04:58:39;8.50;;;5.85;;
74495;SDS011;62979;55.720;37.606;2022-09-12T05:01:09;12.43;;;7.30;;
74495;SDS011;62979;55.720;37.606;2022-09-12T05:03:38;9.68;;;7.18;;
74495;SDS011;62979;55.720;37.606;2022-09-12T05:06:08;11.40;;;7.15;;
74495;SDS011;62979;55.720;37.606;2022-09-12T05:08:37;12.70;;;6.20;;
74495;SDS011;62979;55.720;37.606;2022-09-12T05:11:05;11.05;;;7.47;;
74495;SDS011;62979;55.720;37.606;2022-09-12T05:13:35;13.23;;;8.10;;
74495;SDS011;62979;55.720;37.606;2022-09-12T05:16:03;14.35;;;7.15;;
74495;SDS011;62979;55.720;37.606;2022-09-12T05:18:34;11.43;;;6.78;;
74495;SDS011;62979;55.720;37.606;2022-09-12T05:21:02;13.25;;;6.70;;
74495;SDS011;62979;55.720;37.606;2022-09-12T05:23:32;10.05;;;6.28;;
74495;SDS011;62979;55.720;37.606;2022-09-12T05:26:00;13.07;;;6.05;;
74495;SDS011;62979;55.720;37.606;2022-09-12T05:28:29;13.80;;;7.07;;
74495;SDS011;62979;55.720;37.606;2022-09-12T05:31:00;11.63;;;6.78;;
74495;SDS011;62979;55.720;37.606;2022-09-12T05:33:28;11.77;;;5.80;;
74495;SDS011;62979;55.720;37.606;2022-09-12T05:35:58;15.00;;;6.88;;
74495;SDS011;62979;55.720;37.606;2022-09-12T05:38:26;13.88;;;6.18;;
74495;SDS011;62979;55.720;37.606;2022-09-12T05:40:53;8.32;;;5.20;;
74495;SDS011;62979;55.720;37.606;2022-09-12T05:43:28;13.07;;;6.40;;
74495;SDS011;62979;55.720;37.606;2022-09-12T05:45:59;10.23;;;6.20;;
74495;SDS011;62979;55.720;37.606;2022-09-12T05:48:27;11.00;;;5.65;;
74495;SDS011;62979;55.720;37.606;2022-09-12T05:50:59;9.00;;;5.32;;
74495;SDS011;62979;55.720;37.606;2022-09-12T05:53:28;6.60;;;4.35;;
74495;SDS011;62979;55.720;37.606;2022-09-12T05:56:03;8.73;;;4.85;;
74495;SDS011;62979;55.720;37.606;2022-09-12T05:58:33;7.50;;;4.30;;
74495;SDS011;62979;55.720;37.606;2022-09-12T06:01:02;10.10;;;5.22;;
74495;SDS011;62979;55.720;37.606;2022-09-12T06:03:32;10.27;;;5.38;;
74495;SDS011;62979;55.720;37.606;2022-09-12T06:06:03;7.40;;;5.63;;
74495;SDS011;62979;55.720;37.606;2022-09-12T06:08:32;8.90;;;5.68;;
74495;SDS011;62979;55.720;37.606;2022-09-12T06:11:01;9.80;;;6.07;;
74495;SDS011;62979;55.720;37.606;2022-09-12T06:13:31;6.75;;;5.43;;
74495;SDS011;62979;55.720;37.606;2022-09-12T06:16:01;12.27;;;5.70;;
74495;SDS011;62979;55.720;37.606;2022-09-12T06:18:30;10.88;;;6.15;;
74495;SDS011;62979;55.720;37.606;2022-09-12T06:21:00;11.55;;;5.75;;
74495;SDS011;62979;55.720;37.606;2022-09-12T06:23:30;8.40;;;5.18;;
74495;SDS011;62979;55.720;37.606;2022-09-12T06:25:57;11.85;;;5.78;;
74495;SDS011;62979;55.720;37.606;2022-09-12T06:28:24;6.80;;;5.53;;
74495;SDS011;62979;55.720;37.606;2022-09-12T06:30:52;9.80;;;5.88;;
74495;SDS011;62979;55.720;37.606;2022-09-12T06:33:19;8.43;;;6.88;;
74495;SDS011;62979;55.720;37.606;2022-09-12T06:35:46;10.88;;;5.65;;
74495;SDS011;62979;55.720;37.606;2022-09-12T06:38:15;12.52;;;5.63;;
74495;SDS011;62979;55.720;37.606;2022-09-12T06:40:42;11.70;;;6.05;;
74495;SDS011;62979;55.720;37.606;2022-09-12T06:43:10;12.40;;;5.63;;
74495;SDS011;62979;55.720;37.606;2022-09-12T06:45:38;9.05;;;5.72;;
74495;SDS011;62979;55.720;37.606;2022-09-12T06:48:13;8.38;;;5.75;;
74495;SDS011;62979;55.720;37.606;2022-09-12T06:50:41;9.88;;;5.90;;
74495;SDS011;62979;55.720;37.606;2022-09-12T06:53:08;13.18;;;5.55;;
74495;SDS011;62979;55.720;37.606;2022-09-12T06:55:36;9.35;;;5.18;;
74495;SDS011;62979;55.720;37.606;2022-09-12T06:58:03;7.47;;;3.97;;
74495;SDS011;62979;55.720;37.606;2022-09-12T07:00:31;8.45;;;5.50;;
74495;SDS011;62979;55.720;37.606;2022-09-12T07:02:57;12.07;;;5.05;;
74495;SDS011;62979;55.720;37.606;2022-09-12T07:05:24;10.32;;;5.25;;
74495;SDS011;62979;55.720;37.606;2022-09-12T07:07:52;9.15;;;4.72;;
74495;SDS011;62979;55.720;37.606;2022-09-12T07:10:19;10.70;;;5.28;;
74495;SDS011;62979;55.720;37.606;2022-09-12T07:12:47;8.30;;;5.03;;
74495;SDS011;62979;55.720;37.606;2022-09-12T07:15:14;8.60;;;5.05;;
74495;SDS011;62979;55.720;37.606;2022-09-12T07:17:42;11.45;;;6.10;;
74495;SDS011;62979;55.720;37.606;2022-09-12T07:20:09;11.50;;;5.88;;
74495;SDS011;62979;55.720;37.606;2022-09-12T07:22:36;9.82;;;5.10;;
74495;SDS011;62979;55.720;37.606;2022-09-12T07:25:03;13.25;;;5.07;;
74495;SDS011;62979;55.720;37.606;2022-09-12T07:27:31;10.70;;;5.50;;
74495;SDS011;62979;55.720;37.606;2022-09-12T07:29:59;7.70;;;4.88;;
74495;SDS011;62979;55.720;37.606;2022-09-12T07:32:28;7.35;;;4.30;;
74495;SDS011;62979;55.720;37.606;2022-09-12T07:34:55;5.15;;;3.38;;
74495;SDS011;62979;55.720;37.606;2022-09-12T07:37:22;6.00;;;3.95;;
74495;SDS011;62979;55.720;37.606;2022-09-12T07:39:49;7.45;;;3.65;;
74495;SDS011;62979;55.720;37.606;2022-09-12T07:42:16;6.13;;;3.58;;
74495;SDS011;62979;55.720;37.606;2022-09-12T07:44:43;6.50;;;3.67;;
74495;SDS011;62979;55.720;37.606;2022-09-12T07:47:13;3.90;;;3.22;;
74495;SDS011;62979;55.720;37.606;2022-09-12T07:49:41;8.32;;;4.30;;
74495;SDS011;62979;55.720;37.606;2022-09-12T07:52:08;6.10;;;4.53;;
74495;SDS011;62979;55.720;37.606;2022-09-12T07:54:35;7.85;;;4.15;;
74495;SDS011;62979;55.720;37.606;2022-09-12T07:57:02;6.13;;;3.42;;
74495;SDS011;62979;55.720;37.606;2022-09-12T07:59:29;10.40;;;4.25;;
74495;SDS011;62979;55.720;37.606;2022-09-12T08:01:56;4.47;;;2.35;;
74495;SDS011;62979;55.720;37.606;2022-09-12T08:04:25;8.90;;;3.50;;
74495;SDS011;62979;55.720;37.606;2022-09-12T08:06:52;5.47;;;4.10;;
74495;SDS011;62979;55.720;37.606;2022-09-12T08:09:19;5.07;;;3.95;;
74495;SDS011;62979;55.720;37.606;2022-09-12T08:11:46;9.77;;;4.55;;
74495;SDS011;62979;55.720;37.606;2022-09-12T08:14:13;4.68;;;3.60;;
74495;SDS011;62979;55.720;37.606;2022-09-12T08:16:41;8.85;;;4.40;;
74495;SDS011;62979;55.720;37.606;2022-09-12T08:19:09;8.05;;;4.40;;
74495;SDS011;62979;55.720;37.606;2022-09-12T08:21:37;7.88;;;4.00;;
74495;SDS011;62979;55.720;37.606;2022-09-12T08:24:04;5.32;;;3.78;;
74495;SDS011;62979;55.720;37.606;2022-09-12T08:26:33;7.45;;;4.53;;
74495;SDS011;62979;55.720;37.606;2022-09-12T08:29:00;11.27;;;6.63;;
74495;SDS011;62979;55.720;37.606;2022-09-12T08:31:29;6.93;;;5.13;;
74495;SDS011;62979;55.720;37.606;2022-09-12T08:34:00;9.05;;;4.50;;
74495;SDS011;62979;55.720;37.606;2022-09-12T08:36:28;9.45;;;5.00;;
74495;SDS011;62979;55.720;37.606;2022-09-12T08:38:57;6.03;;;4.90;;
74495;SDS011;62979;55.720;37.606;2022-09-12T08:41:28;7.75;;;5.30;;
74495;SDS011;62979;55.720;37.606;2022-09-12T08:47:26;11.45;;;5.38;;
74495;SDS011;62979;55.720;37.606;2022-09-12T08:50:00;12.93;;;5.50;;
74495;SDS011;62979;55.720;37.606;2022-09-12T08:52:39;13.23;;;6.25;;
74495;SDS011;62979;55.720;37.606;2022-09-12T08:55:28;10.20;;;5.38;;
74495;SDS011;62979;55.720;37.606;2022-09-12T08:57:59;9.13;;;5.45;;
74495;SDS011;62979;55.720;37.606;2022-09-12T09:00:38;11.48;;;6.95;;
74495;SDS011;62979;55.720;37.606;2022-09-12T09:06:23;10.85;;;6.47;;
74495;SDS011;62979;55.720;37.606;2022-09-12T09:09:10;8.82;;;5.85;;
74495;SDS011;62979;55.720;37.606;2022-09-12T09:11:53;9.55;;;6.18;;
74495;SDS011;62979;55.720;37.606;2022-09-12T09:14:41;14.57;;;7.13;;
74495;SDS011;62979;55.720;37.606;2022-09-12T09:17:33;10.88;;;6.07;;
74495;SDS011;62979;55.720;37.606;2022-09-12T09:20:09;14.32;;;7.38;;
74495;SDS011;62979;55.720;37.606;2022-09-12T09:22:48;12.90;;;7.85;;
74495;SDS011;62979;55.720;37.606;2022-09-12T09:25:21;11.77;;;7.45;;
74495;SDS011;62979;55.720;37.606;2022-09-12T09:27:55;10.32;;;6.38;;
74495;SDS011;62979;55.720;37.606;2022-09-12T09:30:27;12.25;;;7.68;;
74495;SDS011;62979;55.720;37.606;2022-09-12T09:32:57;14.02;;;7.15;;
74495;SDS011;62979;55.720;37.606;2022-09-12T09:35:30;11.93;;;7.07;;
74495;SDS011;62979;55.720;37.606;2022-09-12T09:38:13;14.85;;;8.13;;
74495;SDS011;62979;55.720;37.606;2022-09-12T09:40:52;14.52;;;7.47;;
74495;SDS011;62979;55.720;37.606;2022-09-12T09:43:37;12.55;;;7.50;;
74495;SDS011;62979;55.720;37.606;2022-09-12T09:46:05;14.52;;;8.77;;
74495;SDS011;62979;55.720;37.606;2022-09-12T09:48:33;15.55;;;8.35;;
74495;SDS011;62979;55.720;37.606;2022-09-12T09:51:05;14.35;;;7.88;;
74495;SDS011;62979;55.720;37.606;2022-09-12T09:53:36;11.63;;;7.90;;
74495;SDS011;62979;55.720;37.606;2022-09-12T09:56:14;13.95;;;8.98;;
74495;SDS011;62979;55.720;37.606;2022-09-12T09:59:06;16.33;;;9.13;;
74495;SDS011;62979;55.720;37.606;2022-09-12T10:01:36;16.23;;;9.88;;
74495;SDS011;62979;55.720;37.606;2022-09-12T10:04:09;15.68;;;10.45;;
74495;SDS011;62979;55.720;37.606;2022-09-12T10:06:46;17.40;;;9.52;;
74495;SDS011;62979;55.720;37.606;2022-09-12T10:09:20;17.02;;;9.30;;
74495;SDS011;62979;55.720;37.606;2022-09-12T10:11:51;17.58;;;9.48;;
74495;SDS011;62979;55.720;37.606;2022-09-12T10:14:29;19.42;;;10.75;;
74495;SDS011;62979;55.720;37.606;2022-09-12T10:17:01;15.43;;;10.15;;
74495;SDS011;62979;55.720;37.606;2022-09-12T10:19:48;17.90;;;11.05;;
74495;SDS011;62979;55.720;37.606;2022-09-12T10:22:17;17.25;;;11.15;;
74495;SDS011;62979;55.720;37.606;2022-09-12T10:24:48;17.15;;;10.00;;
74495;SDS011;62979;55.720;37.606;2022-09-12T10:27:19;15.70;;;11.52;;
74495;SDS011;62979;55.720;37.606;2022-09-12T10:29:51;14.45;;;10.90;;
74495;SDS011;62979;55.720;37.606;2022-09-12T10:32:26;19.90;;;11.25;;
74495;SDS011;62979;55.720;37.606;2022-09-12T10:35:00;20.45;;;11.45;;
74495;SDS011;62979;55.720;37.606;2022-09-12T10:37:33;17.42;;;9.65;;
74495;SDS011;62979;55.720;37.606;2022-09-12T10:40:04;19.13;;;10.40;;
74495;SDS011;62979;55.720;37.606;2022-09-12T10:42:48;19.75;;;11.43;;
74495;SDS011;62979;55.720;37.606;2022-09-12T10:45:21;15.68;;;11.20;;
74495;SDS011;62979;55.720;37.606;2022-09-12T10:47:53;18.48;;;10.68;;
74495;SDS011;62979;55.720;37.606;2022-09-12T10:50:27;23.33;;;12.48;;
74495;SDS011;62979;55.720;37.606;2022-09-12T10:55:52;17.25;;;10.95;;
74495;SDS011;62979;55.720;37.606;2022-09-12T11:01:35;20.65;;;11.93;;
74495;SDS011;62979;55.720;37.606;2022-09-12T11:04:19;17.95;;;12.57;;
74495;SDS011;62979;55.720;37.606;2022-09-12T11:07:00;18.65;;;11.18;;
74495;SDS011;62979;55.720;37.606;2022-09-12T11:09:53;15.32;;;10.98;;
74495;SDS011;62979;55.720;37.606;2022-09-12T11:12:33;17.85;;;10.55;;
74495;SDS011;62979;55.720;37.606;2022-09-12T11:15:22;21.75;;;11.82;;
74495;SDS011;62979;55.720;37.606;2022-09-12T11:18:12;22.25;;;11.05;;
74495;SDS011;62979;55.720;37.606;2022-09-12T11:21:13;17.48;;;11.00;;
74495;SDS011;62979;55.720;37.606;2022-09-12T11:24:02;21.55;;;11.00;;
74495;SDS011;62979;55.720;37.606;2022-09-12T11:27:00;16.50;;;11.07;;
74495;SDS011;62979;55.720;37.606;2022-09-12T11:29:53;20.55;;;11.45;;
74495;SDS011;62979;55.720;37.606;2022-09-12T11:32:39;19.00;;;10.15;;
74495;SDS011;62979;55.720;37.606;2022-09-12T11:35:33;16.55;;;10.25;;
74495;SDS011;62979;55.720;37.606;2022-09-12T11:41:17;20.08;;;11.77;;
74495;SDS011;62979;55.720;37.606;2022-09-12T11:43:52;20.58;;;11.52;;
74495;SDS011;62979;55.720;37.606;2022-09-12T11:46:28;20.15;;;11.10;;
74495;SDS011;62979;55.720;37.606;2022-09-12T11:49:03;18.90;;;10.55;;
74495;SDS011;62979;55.720;37.606;2022-09-12T11:51:44;17.98;;;10.85;;
74495;SDS011;62979;55.720;37.606;2022-09-12T11:54:21;17.55;;;10.20;;
74495;SDS011;62979;55.720;37.606;2022-09-12T11:57:00;23.30;;;11.80;;
74495;SDS011;62979;55.720;37.606;2022-09-12T11:59:46;24.50;;;10.80;;
74495;SDS011;62979;55.720;37.606;2022-09-12T12:02:21;18.92;;;10.85;;
74495;SDS011;62979;55.720;37.606;2022-09-12T12:05:03;21.70;;;11.45;;
74495;SDS011;62979;55.720;37.606;2022-09-12T12:07:48;23.40;;;12.25;;
74495;SDS011;62979;55.720;37.606;2022-09-12T12:10:26;22.42;;;11.52;;
74495;SDS011;62979;55.720;37.606;2022-09-12T12:13:02;21.08;;;11.45;;
74495;SDS011;62979;55.720;37.606;2022-09-12T12:15:33;19.95;;;12.13;;
74495;SDS011;62979;55.720;37.606;2022-09-12T12:18:03;25.58;;;13.30;;
74495;SDS011;62979;55.720;37.606;2022-09-12T12:20:40;20.25;;;10.98;;
74495;SDS011;62979;55.720;37.606;2022-09-12T12:25:51;22.45;;;11.85;;
74495;SDS011;62979;55.720;37.606;2022-09-12T12:31:24;17.45;;;10.75;;
74495;SDS011;62979;55.720;37.606;2022-09-12T12:33:59;18.20;;;11.15;;
74495;SDS011;62979;55.720;37.606;2022-09-12T12:36:48;23.17;;;10.25;;
74495;SDS011;62979;55.720;37.606;2022-09-12T12:46:00;18.48;;;10.18;;
74495;SDS011;62979;55.720;37.606;2022-09-12T12:48:41;21.73;;;9.75;;
74495;SDS011;62979;55.720;37.606;2022-09-12T12:51:27;13.88;;;9.63;;
74495;SDS011;62979;55.720;37.606;2022-09-12T12:54:00;13.18;;;9.82;;
74495;SDS011;62979;55.720;37.606;2022-09-12T12:56:37;17.42;;;9.02;;
74495;SDS011;62979;55.720;37.606;2022-09-12T12:59:17;19.25;;;9.85;;
74495;SDS011;62979;55.720;37.606;2022-09-12T13:01:48;17.67;;;9.43;;
74495;SDS011;62979;55.720;37.606;2022-09-12T13:04:21;17.13;;;10.18;;
74495;SDS011;62979;55.720;37.606;2022-09-12T13:06:55;13.85;;;9.43;;
74495;SDS011;62979;55.720;37.606;2022-09-12T13:09:29;15.85;;;8.52;;
74495;SDS011;62979;55.720;37.606;2022-09-12T13:12:01;14.85;;;8.32;;
74495;SDS011;62979;55.720;37.606;2022-09-12T13:14:34;16.05;;;8.68;;
74495;SDS011;62979;55.720;37.606;2022-09-12T13:17:27;13.73;;;7.40;;
74495;SDS011;62979;55.720;37.606;2022-09-12T13:22:49;13.90;;;7.50;;
74495;SDS011;62979;55.720;37.606;2022-09-12T13:25:25;12.40;;;7.35;;
74495;SDS011;62979;55.720;37.606;2022-09-12T13:27:58;11.30;;;7.88;;
74495;SDS011;62979;55.720;37.606;2022-09-12T13:30:29;13.68;;;7.35;;
74495;SDS011;62979;55.720;37.606;2022-09-12T13:33:02;13.25;;;6.95;;
74495;SDS011;62979;55.720;37.606;2022-09-12T13:35:54;8.18;;;6.40;;
74495;SDS011;62979;55.720;37.606;2022-09-12T13:38:55;11.85;;;7.13;;
74495;SDS011;62979;55.720;37.606;2022-09-12T13:41:39;12.35;;;7.55;;
74495;SDS011;62979;55.720;37.606;2022-09-12T13:44:39;13.45;;;6.95;;
74495;SDS011;62979;55.720;37.606;2022-09-12T13:47:12;10.50;;;5.60;;
74495;SDS011;62979;55.720;37.606;2022-09-12T13:49:46;11.30;;;7.47;;
74495;SDS011;62979;55.720;37.606;2022-09-12T13:52:15;11.55;;;6.60;;
74495;SDS011;62979;55.720;37.606;2022-09-12T13:54:47;12.25;;;6.00;;
74495;SDS011;62979;55.720;37.606;2022-09-12T13:57:29;12.82;;;5.38;;
74495;SDS011;62979;55.720;37.606;2022-09-12T14:00:03;10.77;;;6.22;;
74495;SDS011;62979;55.720;37.606;2022-09-12T14:02:35;7.57;;;5.55;;
74495;SDS011;62979;55.720;37.606;2022-09-12T14:05:12;10.05;;;5.32;;
74495;SDS011;62979;55.720;37.606;2022-09-12T14:07:51;11.27;;;6.03;;
74495;SDS011;62979;55.720;37.606;2022-09-12T14:10:25;12.23;;;5.88;;
74495;SDS011;62979;55.720;37.606;2022-09-12T14:12:57;9.25;;;4.80;;
74495;SDS011;62979;55.720;37.606;2022-09-12T14:15:31;13.48;;;5.97;;
74495;SDS011;62979;55.720;37.606;2022-09-12T14:18:03;12.80;;;5.53;;
74495;SDS011;62979;55.720;37.606;2022-09-12T14:20:34;14.93;;;5.80;;
74495;SDS011;62979;55.720;37.606;2022-09-12T14:23:05;5.72;;;4.93;;
74495;SDS011;62979;55.720;37.606;2022-09-12T14:25:44;5.13;;;4.50;;
74495;SDS011;62979;55.720;37.606;2022-09-12T14:28:13;7.50;;;5.35;;
74495;SDS011;62979;55.720;37.606;2022-09-12T14:30:57;6.07;;;4.55;;
74495;SDS011;62979;55.720;37.606;2022-09-12T14:33:27;14.75;;;5.30;;
74495;SDS011;62979;55.720;37.606;2022-09-12T14:36:08;6.80;;;4.75;;
74495;SDS011;62979;55.720;37.606;2022-09-12T14:38:47;8.80;;;4.00;;
74495;SDS011;62979;55.720;37.606;2022-09-12T14:41:21;17.25;;;5.25;;
74495;SDS011;62979;55.720;37.606;2022-09-12T14:43:53;10.77;;;4.78;;
74495;SDS011;62979;55.720;37.606;2022-09-12T14:46:28;10.30;;;4.80;;
74495;SDS011;62979;55.720;37.606;2022-09-12T14:49:00;11.68;;;4.93;;
74495;SDS011;62979;55.720;37.606;2022-09-12T14:51:36;13.10;;;4.53;;
74495;SDS011;62979;55.720;37.606;2022-09-12T14:57:27;6.25;;;3.40;;
74495;SDS011;62979;55.720;37.606;2022-09-12T15:00:17;6.18;;;3.53;;
74495;SDS011;62979;55.720;37.606;2022-09-12T15:02:49;12.05;;;4.60;;
74495;SDS011;62979;55.720;37.606;2022-09-12T15:05:19;6.90;;;3.85;;
74495;SDS011;62979;55.720;37.606;2022-09-12T15:07:51;8.25;;;3.03;;
74495;SDS011;62979;55.720;37.606;2022-09-12T15:10:24;5.15;;;3.92;;
74495;SDS011;62979;55.720;37.606;2022-09-12T15:15:50;8.30;;;3.38;;
74495;SDS011;62979;55.720;37.606;2022-09-12T15:18:22;9.32;;;2.83;;
74495;SDS011;62979;55.720;37.606;2022-09-12T15:20:52;5.07;;;2.70;;
74495;SDS011;62979;55.720;37.606;2022-09-12T15:23:28;8.57;;;3.28;;
74495;SDS011;62979;55.720;37.606;2022-09-12T15:26:02;8.50;;;3.28;;
74495;SDS011;62979;55.720;37.606;2022-09-12T15:28:31;22.67;;;4.13;;
74495;SDS011;62979;55.720;37.606;2022-09-12T15:31:04;13.30;;;3.58;;
74495;SDS011;62979;55.720;37.606;2022-09-12T15:33:38;7.65;;;3.53;;
74495;SDS011;62979;55.720;37.606;2022-09-12T15:36:10;6.57;;;3.38;;
74495;SDS011;62979;55.720;37.606;2022-09-12T15:38:41;10.63;;;3.95;;
74495;SDS011;62979;55.720;37.606;2022-09-12T15:41:10;7.28;;;3.47;;
74495;SDS011;62979;55.720;37.606;2022-09-12T15:43:41;6.32;;;3.33;;
74495;SDS011;62979;55.720;37.606;2022-09-12T15:46:09;6.28;;;2.88;;
74495;SDS011;62979;55.720;37.606;2022-09-12T15:48:39;6.40;;;3.25;;
74495;SDS011;62979;55.720;37.606;2022-09-12T15:51:08;10.80;;;5.10;;